Time;durP1;ratioP1;P1;durP2;ratioP2;P2;SDS_P1;SDS_P2;PMS_P1;PMS_P2;Temp;Humidity;BMP_temperature;BMP_pressure;BME280_temperature;BME280_humidity;BME280_pressure;Samples;Min_cycle;Max_cycle;Signal;HPM_P1;HPM_P2
2021/07/23 00:01:18;;;;;;;16.10;13.93;;;20.90;99.80;;;;;;5036510;28;20452;-52
2021/07/23 00:03:45;;;;;;;14.33;12.43;;;20.50;99.90;;;;;;5054529;28;20437;-52
2021/07/23 00:06:12;;;;;;;16.37;13.43;;;20.90;99.90;;;;;;5054445;28;20494;-51
2021/07/23 00:08:38;;;;;;;17.53;14.40;;;20.40;99.90;;;;;;5054356;28;20431;-52
2021/07/23 00:11:05;;;;;;;16.47;13.37;;;20.30;99.90;;;;;;5054875;28;20465;-52
2021/07/23 00:13:32;;;;;;;16.13;14.00;;;20.50;99.90;;;;;;5054432;28;20440;-51
2021/07/23 00:15:58;;;;;;;16.23;13.70;;;20.70;99.90;;;;;;5054499;28;20865;-52
2021/07/23 00:18:26;;;;;;;17.80;14.33;;;20.20;99.90;;;;;;5053869;28;20432;-51
2021/07/23 00:20:53;;;;;;;19.30;14.13;;;20.20;99.90;;;;;;5054372;28;20437;-52
2021/07/23 00:23:19;;;;;;;17.27;14.27;;;20.10;99.90;;;;;;5054301;28;20434;-52
2021/07/23 00:25:46;;;;;;;27.83;21.00;;;20.20;99.90;;;;;;5054137;28;20518;-51
2021/07/23 00:28:13;;;;;;;22.90;14.97;;;20.10;99.90;;;;;;5053940;28;20468;-52
2021/07/23 00:30:40;;;;;;;18.40;13.93;;;20.10;99.90;;;;;;5054063;28;20431;-54
2021/07/23 00:33:06;;;;;;;18.10;15.50;;;19.90;99.90;;;;;;5054059;28;20432;-52
2021/07/23 00:35:34;;;;;;;20.00;14.93;;;20.40;99.90;;;;;;5054161;28;20432;-52
2021/07/23 00:38:01;;;;;;;17.20;14.50;;;20.00;99.90;;;;;;5053951;28;20495;-51
2021/07/23 00:40:27;;;;;;;18.90;14.33;;;20.00;99.90;;;;;;5053894;28;20454;-52
2021/07/23 00:42:56;;;;;;;17.87;13.70;;;20.00;99.90;;;;;;5036065;28;20537;-52
2021/07/23 00:45:22;;;;;;;20.63;16.27;;;19.90;99.90;;;;;;5053803;28;20944;-51
2021/07/23 00:47:54;;;;;;;19.70;14.83;;;19.90;99.90;;;;;;5035849;28;20482;-52
2021/07/23 00:50:21;;;;;;;18.00;15.17;;;19.90;99.90;;;;;;5035583;28;20856;-51
2021/07/23 00:52:49;;;;;;;18.67;15.60;;;19.80;99.90;;;;;;5053803;28;20435;-52
2021/07/23 00:55:17;;;;;;;20.30;16.83;;;19.80;99.90;;;;;;5035693;28;20504;-51
2021/07/23 00:57:46;;;;;;;20.43;15.43;;;19.90;99.90;;;;;;5034524;28;21094;-53
2021/07/23 01:00:14;;;;;;;18.60;14.43;;;19.70;99.90;;;;;;5035416;28;20451;-52
2021/07/23 01:02:55;;;;;;;18.13;14.73;;;19.70;99.90;;;;;;5035555;28;20474;-52
2021/07/23 01:05:23;;;;;;;16.70;15.00;;;19.70;99.90;;;;;;5035679;28;21009;-52
2021/07/23 01:07:51;;;;;;;16.17;14.50;;;19.60;99.90;;;;;;5035443;28;20509;-52
2021/07/23 01:10:18;;;;;;;19.27;16.00;;;19.60;99.90;;;;;;5053039;28;20445;-52
2021/07/23 01:13:12;;;;;;;16.67;14.53;;;19.60;99.90;;;;;;5035380;28;20447;-52
2021/07/23 01:15:39;;;;;;;19.33;15.40;;;19.50;99.90;;;;;;5035225;28;20989;-52
2021/07/23 01:18:06;;;;;;;17.70;14.83;;;19.50;99.90;;;;;;5053032;28;20457;-52
2021/07/23 01:20:33;;;;;;;17.30;15.23;;;19.50;99.90;;;;;;5035212;28;20446;-52
2021/07/23 01:23:04;;;;;;;15.53;13.87;;;19.40;99.90;;;;;;5035197;28;20462;-52
2021/07/23 01:25:35;;;;;;;18.57;16.07;;;19.40;99.90;;;;;;5035098;28;20450;-51
2021/07/23 01:28:03;;;;;;;18.83;14.53;;;19.40;99.90;;;;;;5034826;28;20557;-52
2021/07/23 01:30:37;;;;;;;16.40;14.37;;;19.30;99.90;;;;;;5035143;28;20465;-52
2021/07/23 01:33:12;;;;;;;20.33;15.90;;;19.50;99.90;;;;;;5035145;28;20473;-52
2021/07/23 01:35:39;;;;;;;21.90;16.53;;;19.40;99.90;;;;;;5053065;28;20438;-52
2021/07/23 01:38:11;;;;;;;18.70;14.73;;;19.30;99.90;;;;;;5052820;28;20430;-51
2021/07/23 01:40:39;;;;;;;18.70;14.73;;;19.40;99.90;;;;;;5052777;28;20515;-52
2021/07/23 01:43:06;;;;;;;17.83;14.27;;;19.40;99.90;;;;;;5034738;28;20442;-52
2021/07/23 01:45:33;;;;;;;18.60;14.47;;;19.40;99.90;;;;;;5034633;28;20450;-51
2021/07/23 01:48:18;;;;;;;16.13;14.00;;;19.80;99.90;;;;;;5052621;28;20496;-52
2021/07/23 01:50:46;;;;;;;19.17;15.70;;;19.40;99.90;;;;;;5034628;28;20449;-52
2021/07/23 01:53:12;;;;;;;21.63;16.13;;;19.30;99.90;;;;;;5034624;28;20458;-52
2021/07/23 01:55:58;;;;;;;16.60;14.30;;;19.30;99.90;;;;;;5034422;28;20448;-52
2021/07/23 01:58:31;;;;;;;18.03;15.13;;;19.30;99.90;;;;;;5034215;28;20517;-52
2021/07/23 02:01:01;;;;;;;15.47;13.80;;;19.40;99.90;;;;;;5034390;28;20482;-51
2021/07/23 02:03:33;;;;;;;18.37;15.20;;;19.30;99.90;;;;;;5034500;28;20456;-52
2021/07/23 02:06:00;;;;;;;22.20;16.63;;;19.30;99.90;;;;;;5034314;28;20925;-51
2021/07/23 02:08:30;;;;;;;17.43;15.03;;;19.30;99.90;;;;;;5051659;28;20434;-51
2021/07/23 02:11:03;;;;;;;16.70;14.10;;;19.30;99.90;;;;;;5052330;28;20436;-52
2021/07/23 02:13:30;;;;;;;18.10;14.93;;;19.30;99.90;;;;;;5034437;28;20553;-52
2021/07/23 02:15:58;;;;;;;19.40;14.53;;;19.20;99.90;;;;;;5034226;28;20489;-52
2021/07/23 02:18:27;;;;;;;17.00;14.93;;;19.20;99.90;;;;;;5034294;28;20871;-52
2021/07/23 02:20:54;;;;;;;19.77;16.43;;;19.40;99.90;;;;;;5034221;28;20724;-52
2021/07/23 02:23:21;;;;;;;15.87;13.50;;;19.20;99.90;;;;;;5034081;28;20523;-52
2021/07/23 02:25:48;;;;;;;16.20;14.47;;;19.10;99.90;;;;;;5033986;28;20528;-52
2021/07/23 02:28:18;;;;;;;18.20;14.70;;;19.10;99.90;;;;;;5033707;28;20457;-51
2021/07/23 02:30:50;;;;;;;16.90;14.23;;;19.10;99.90;;;;;;5034126;28;20966;-51
2021/07/23 02:33:33;;;;;;;19.53;14.93;;;19.10;99.90;;;;;;5033756;28;20822;-52
2021/07/23 02:36:20;;;;;;;22.60;16.70;;;19.10;99.90;;;;;;5032932;28;20552;-51
2021/07/23 02:38:47;;;;;;;18.20;16.17;;;19.00;99.90;;;;;;5051113;28;20770;-51
2021/07/23 02:41:16;;;;;;;20.50;15.63;;;19.30;99.90;;;;;;5034083;28;20454;-52
2021/07/23 02:43:48;;;;;;;17.67;15.70;;;19.10;99.90;;;;;;5033725;28;21041;-51
2021/07/23 02:46:15;;;;;;;19.63;15.40;;;19.10;99.90;;;;;;5033654;28;20486;-51
2021/07/23 02:48:42;;;;;;;18.93;15.10;;;19.10;99.90;;;;;;5033525;28;20452;-51
2021/07/23 02:51:10;;;;;;;18.03;13.93;;;19.10;99.90;;;;;;5033709;28;20953;-51
2021/07/23 02:53:38;;;;;;;18.73;16.33;;;19.10;99.90;;;;;;5033833;28;20540;-51
2021/07/23 02:56:07;;;;;;;23.40;16.37;;;19.30;99.90;;;;;;5051468;28;20483;-51
2021/07/23 02:58:36;;;;;;;21.00;15.67;;;19.00;99.90;;;;;;5033238;28;20511;-51
2021/07/23 03:01:05;;;;;;;18.27;16.30;;;18.90;99.90;;;;;;5033786;28;20579;-52
2021/07/23 03:03:32;;;;;;;18.60;15.33;;;18.90;99.90;;;;;;5033719;28;20825;-51
2021/07/23 03:05:59;;;;;;;19.90;15.87;;;18.90;99.90;;;;;;5033306;28;20477;-51
2021/07/23 03:08:30;;;;;;;17.40;15.30;;;18.80;99.90;;;;;;5051005;28;20441;-51
2021/07/23 03:10:58;;;;;;;18.77;15.67;;;18.90;99.90;;;;;;5051295;28;20457;-51
2021/07/23 03:13:33;;;;;;;17.87;15.93;;;18.90;99.90;;;;;;5033510;28;20507;-51
2021/07/23 03:16:02;;;;;;;21.63;16.17;;;18.90;99.90;;;;;;5033382;28;20483;-52
2021/07/23 03:18:30;;;;;;;17.60;15.33;;;18.90;99.90;;;;;;5050961;28;20438;-51
2021/07/23 03:20:57;;;;;;;21.10;15.87;;;18.90;99.90;;;;;;5052120;28;20575;-51
2021/07/23 03:23:24;;;;;;;17.33;15.50;;;18.80;99.90;;;;;;5037498;28;20452;-51
2021/07/23 03:25:54;;;;;;;20.10;15.90;;;18.80;99.90;;;;;;5037234;28;20465;-52
2021/07/23 03:28:27;;;;;;;20.60;16.40;;;18.80;99.90;;;;;;5036958;28;20441;-52
2021/07/23 03:31:14;;;;;;;21.97;15.33;;;19.10;99.90;;;;;;5054594;28;20453;-51
2021/07/23 03:33:44;;;;;;;17.87;15.10;;;18.90;99.90;;;;;;5037317;28;20446;-51
2021/07/23 03:36:13;;;;;;;21.23;14.80;;;19.10;99.90;;;;;;5037199;28;20492;-52
2021/07/23 03:38:40;;;;;;;21.03;16.07;;;18.90;99.90;;;;;;5054944;28;20448;-51
2021/07/23 03:41:07;;;;;;;19.70;15.90;;;18.90;99.90;;;;;;5055264;28;20466;-52
2021/07/23 03:43:34;;;;;;;18.40;15.00;;;18.90;99.90;;;;;;5055217;28;20429;-51
2021/07/23 03:46:05;;;;;;;19.07;15.30;;;19.40;99.90;;;;;;5037384;28;20562;-52
2021/07/23 03:48:39;;;;;;;19.13;15.53;;;19.00;99.90;;;;;;5036668;28;20898;-52
2021/07/23 03:51:10;;;;;;;20.07;15.60;;;19.00;99.90;;;;;;5037046;28;20462;-52
2021/07/23 03:53:38;;;;;;;17.93;15.13;;;19.00;99.90;;;;;;5036950;28;20446;-51
2021/07/23 03:56:19;;;;;;;20.97;15.90;;;19.10;99.90;;;;;;5036988;28;20469;-52
2021/07/23 03:58:46;;;;;;;19.43;15.20;;;19.10;99.90;;;;;;5036548;28;20460;-52
2021/07/23 04:01:18;;;;;;;20.00;15.90;;;19.10;99.90;;;;;;5036850;28;20450;-52
2021/07/23 04:03:50;;;;;;;24.37;16.83;;;19.10;99.90;;;;;;5055047;28;20503;-52
2021/07/23 04:06:19;;;;;;;21.17;16.87;;;19.60;99.90;;;;;;5036254;28;20565;-52
2021/07/23 04:08:46;;;;;;;27.83;17.13;;;19.10;99.90;;;;;;5036294;28;20460;-52
2021/07/23 04:11:26;;;;;;;19.20;16.80;;;19.10;99.90;;;;;;5036585;28;20512;-52
2021/07/23 04:13:54;;;;;;;17.43;14.47;;;19.10;99.90;;;;;;5036617;28;20544;-52
2021/07/23 04:16:21;;;;;;;21.83;17.43;;;19.20;99.90;;;;;;5036407;28;20507;-51
2021/07/23 04:18:50;;;;;;;21.90;17.40;;;19.20;99.90;;;;;;5036209;28;20454;-51
2021/07/23 04:21:33;;;;;;;22.30;17.60;;;19.30;99.90;;;;;;5036536;28;20460;-51
2021/07/23 04:24:08;;;;;;;22.40;16.83;;;19.30;99.90;;;;;;5036599;28;20467;-52
2021/07/23 04:26:35;;;;;;;21.33;17.70;;;19.40;99.90;;;;;;5036097;28;20491;-51
2021/07/23 04:29:02;;;;;;;20.67;16.70;;;19.50;99.90;;;;;;5035787;28;20478;-52
2021/07/23 04:31:29;;;;;;;20.40;16.50;;;19.50;99.90;;;;;;5054162;28;20802;-52
2021/07/23 04:34:04;;;;;;;26.17;18.63;;;19.60;99.90;;;;;;5036326;28;20969;-52
2021/07/23 04:36:36;;;;;;;20.60;17.30;;;19.60;99.90;;;;;;5053864;28;20450;-52
2021/07/23 04:39:24;;;;;;;26.90;18.37;;;19.70;99.90;;;;;;5035898;28;20454;-51
2021/07/23 04:41:53;;;;;;;19.93;17.63;;;19.70;99.90;;;;;;5036018;28;20466;-51
2021/07/23 04:44:19;;;;;;;21.30;16.80;;;19.80;99.90;;;;;;5053954;28;20862;-52
2021/07/23 04:46:49;;;;;;;19.67;16.70;;;19.80;99.90;;;;;;5035837;28;20486;-51
2021/07/23 04:49:16;;;;;;;22.23;17.30;;;19.80;99.90;;;;;;5035418;28;20461;-52
2021/07/23 04:51:44;;;;;;;24.37;19.63;;;19.90;99.90;;;;;;5035846;28;20450;-52
2021/07/23 04:54:40;;;;;;;19.53;17.10;;;19.90;99.90;;;;;;5052989;28;20448;-51
2021/07/23 04:57:28;;;;;;;21.90;17.40;;;19.90;99.90;;;;;;5053658;28;20454;-52
2021/07/23 04:59:56;;;;;;;28.13;19.20;;;20.30;99.90;;;;;;5035568;28;20788;-52
2021/07/23 05:02:23;;;;;;;19.10;16.83;;;19.90;99.90;;;;;;5053720;28;20468;-52
2021/07/23 05:04:50;;;;;;;21.33;16.70;;;20.20;99.90;;;;;;5053533;28;20435;-52
2021/07/23 05:07:18;;;;;;;20.87;18.37;;;20.10;99.90;;;;;;5076149;22;20504;-55
2021/07/23 05:09:45;;;;;;;21.20;18.03;;;20.20;99.90;;;;;;5033173;28;20445;-55
2021/07/23 05:12:13;;;;;;;20.07;17.70;;;20.20;99.90;;;;;;5051987;28;21014;-55
2021/07/23 05:14:39;;;;;;;25.60;19.23;;;20.40;99.90;;;;;;5033780;28;20444;-55
2021/07/23 05:17:07;;;;;;;25.20;18.93;;;20.60;99.90;;;;;;5051461;28;20497;-54
2021/07/23 05:19:35;;;;;;;20.73;16.93;;;20.80;99.90;;;;;;5051274;28;20897;-55
2021/07/23 05:22:01;;;;;;;23.40;18.17;;;20.90;99.90;;;;;;5033439;28;20560;-55
2021/07/23 05:24:30;;;;;;;25.00;17.50;;;21.10;99.90;;;;;;5051534;28;20457;-54
2021/07/23 05:26:57;;;;;;;21.70;17.60;;;21.10;99.90;;;;;;5051358;28;20471;-56
2021/07/23 05:29:23;;;;;;;20.60;17.57;;;21.10;99.90;;;;;;5051114;28;20538;-56
2021/07/23 05:31:50;;;;;;;19.77;16.47;;;21.10;99.90;;;;;;5051349;28;20453;-56
2021/07/23 05:34:17;;;;;;;22.60;17.83;;;21.10;99.90;;;;;;5051221;28;20433;-55
2021/07/23 05:36:43;;;;;;;24.53;17.30;;;21.20;99.90;;;;;;5050928;28;20460;-55
2021/07/23 05:39:10;;;;;;;24.73;17.73;;;21.00;99.90;;;;;;5050427;28;20428;-55
2021/07/23 05:41:38;;;;;;;23.83;18.53;;;20.90;99.90;;;;;;5050845;28;20528;-54
2021/07/23 05:44:05;;;;;;;21.13;18.57;;;20.90;99.90;;;;;;5050209;28;20785;-55
2021/07/23 05:46:33;;;;;;;22.20;17.20;;;20.90;99.90;;;;;;5050850;28;21021;-55
2021/07/23 05:49:00;;;;;;;23.80;18.87;;;20.80;99.90;;;;;;5050577;28;20494;-55
2021/07/23 05:51:26;;;;;;;22.20;17.50;;;20.90;99.90;;;;;;5033015;28;20461;-56
2021/07/23 05:53:53;;;;;;;23.23;19.60;;;20.80;99.90;;;;;;5050921;28;20959;-55
2021/07/23 05:56:19;;;;;;;23.07;17.70;;;20.80;99.90;;;;;;5050963;28;20432;-54
2021/07/23 05:58:48;;;;;;;21.80;17.47;;;20.80;99.90;;;;;;5032569;28;20899;-56
2021/07/23 06:01:15;;;;;;;27.07;18.77;;;20.90;99.90;;;;;;5050724;28;20438;-56
2021/07/23 06:03:41;;;;;;;24.10;19.60;;;20.90;99.90;;;;;;5050910;28;20438;-55
2021/07/23 06:06:08;;;;;;;19.97;17.87;;;20.90;99.90;;;;;;5050494;28;20434;-55
2021/07/23 06:08:35;;;;;;;21.10;17.80;;;21.00;99.90;;;;;;5050575;28;20831;-56
2021/07/23 06:11:05;;;;;;;24.30;19.00;;;21.10;99.90;;;;;;5032266;28;20473;-56
2021/07/23 06:13:32;;;;;;;25.73;18.33;;;21.20;99.90;;;;;;5050684;28;20444;-55
2021/07/23 06:16:03;;;;;;;25.33;20.10;;;21.30;99.90;;;;;;5050541;28;20871;-56
2021/07/23 06:18:29;;;;;;;23.17;19.10;;;21.40;99.90;;;;;;5050169;28;20536;-54
2021/07/23 06:20:56;;;;;;;22.73;18.43;;;21.50;99.90;;;;;;5050507;28;20434;-55
2021/07/23 06:23:23;;;;;;;23.97;18.53;;;21.70;99.90;;;;;;5050357;28;20442;-55
2021/07/23 06:25:49;;;;;;;22.80;19.70;;;21.80;99.90;;;;;;5050447;28;20444;-56
2021/07/23 06:28:16;;;;;;;23.83;21.33;;;21.80;99.90;;;;;;5031488;28;20478;-55
2021/07/23 06:30:42;;;;;;;24.27;20.07;;;21.90;99.90;;;;;;5050029;28;20431;-54
2021/07/23 06:33:10;;;;;;;25.30;18.43;;;21.90;99.90;;;;;;5049961;28;20439;-56
2021/07/23 06:35:37;;;;;;;22.33;19.00;;;22.10;99.90;;;;;;5049689;28;20520;-55
2021/07/23 06:38:04;;;;;;;23.50;18.20;;;22.10;99.90;;;;;;5031923;28;20474;-55
2021/07/23 06:40:30;;;;;;;21.13;18.23;;;22.20;99.90;;;;;;5050066;28;20782;-55
2021/07/23 06:42:57;;;;;;;19.50;16.37;;;22.20;99.90;;;;;;5031680;28;20477;-55
2021/07/23 06:45:23;;;;;;;24.57;18.10;;;22.40;99.90;;;;;;5049849;28;20449;-56
2021/07/23 06:47:50;;;;;;;21.13;17.60;;;22.70;99.90;;;;;;5049887;28;20485;-54
2021/07/23 06:50:18;;;;;;;22.10;17.20;;;22.70;99.90;;;;;;5049499;28;20439;-54
2021/07/23 06:52:44;;;;;;;17.60;14.50;;;22.90;99.90;;;;;;5049920;28;20511;-55
2021/07/23 06:55:12;;;;;;;14.23;12.70;;;22.90;99.90;;;;;;5049579;28;20435;-56
2021/07/23 06:57:39;;;;;;;14.43;11.90;;;22.90;99.90;;;;;;5049068;28;20460;-56
2021/07/23 07:00:06;;;;;;;13.27;11.53;;;22.90;99.90;;;;;;5049405;28;20528;-56
2021/07/23 07:02:33;;;;;;;13.57;12.20;;;23.00;99.00;;;;;;5049435;28;20435;-54
2021/07/23 07:05:02;;;;;;;12.70;11.40;;;23.10;98.80;;;;;;5049366;28;20767;-56
2021/07/23 07:07:29;;;;;;;14.40;13.00;;;23.10;98.60;;;;;;5049710;28;20919;-55
2021/07/23 07:09:56;;;;;;;21.90;17.10;;;23.00;98.10;;;;;;5049584;28;20433;-55
2021/07/23 07:12:23;;;;;;;15.03;11.90;;;23.00;98.00;;;;;;5049379;28;20507;-57
2021/07/23 07:14:51;;;;;;;14.13;12.70;;;23.10;98.10;;;;;;5049652;28;20808;-55
2021/07/23 07:17:18;;;;;;;12.80;11.50;;;23.00;97.80;;;;;;5049363;28;21255;-55
2021/07/23 07:19:45;;;;;;;12.77;11.47;;;23.00;97.90;;;;;;5049327;28;20429;-55
2021/07/23 07:22:11;;;;;;;17.73;12.40;;;23.00;98.00;;;;;;5049550;28;20928;-55
2021/07/23 07:24:39;;;;;;;13.57;11.50;;;23.00;97.80;;;;;;5049425;28;20932;-56
2021/07/23 07:27:06;;;;;;;13.00;11.70;;;23.10;97.80;;;;;;5048981;28;20464;-56
2021/07/23 07:29:32;;;;;;;12.57;11.30;;;23.10;97.20;;;;;;5048835;28;21017;-56
2021/07/23 07:31:59;;;;;;;12.90;10.83;;;23.10;97.30;;;;;;5049195;28;20445;-55
2021/07/23 07:34:26;;;;;;;11.53;10.33;;;23.10;97.50;;;;;;5049307;28;20440;-56
2021/07/23 07:36:52;;;;;;;16.23;11.97;;;23.30;97.50;;;;;;5049355;28;20961;-56
2021/07/23 07:39:19;;;;;;;14.17;11.63;;;23.40;97.20;;;;;;5049448;28;20731;-55
2021/07/23 07:41:47;;;;;;;11.70;10.50;;;23.60;97.00;;;;;;5031017;28;20449;-54
2021/07/23 07:44:14;;;;;;;16.00;12.43;;;23.70;96.80;;;;;;5049404;28;20442;-56
2021/07/23 07:46:40;;;;;;;19.17;12.13;;;23.80;96.40;;;;;;5049216;28;20457;-56
2021/07/23 07:49:07;;;;;;;14.57;12.93;;;23.90;96.20;;;;;;5048870;28;20489;-56
2021/07/23 07:51:33;;;;;;;12.00;10.80;;;23.90;95.90;;;;;;5049198;28;20867;-56
2021/07/23 07:54:00;;;;;;;13.53;10.27;;;23.90;95.70;;;;;;5048928;28;20437;-56
2021/07/23 07:56:27;;;;;;;13.10;11.70;;;23.90;95.60;;;;;;5049071;28;20480;-56
2021/07/23 07:58:55;;;;;;;13.97;10.00;;;23.90;95.30;;;;;;5048858;28;20520;-54
2021/07/23 08:01:21;;;;;;;14.43;11.40;;;23.90;95.00;;;;;;5049195;28;20517;-56
2021/07/23 08:03:48;;;;;;;11.17;10.17;;;24.00;95.00;;;;;;5048982;28;20903;-56
2021/07/23 08:06:22;;;;;;;14.43;11.43;;;24.10;95.00;;;;;;5049140;28;20457;-56
2021/07/23 08:08:51;;;;;;;13.43;11.10;;;24.30;94.80;;;;;;5052071;28;20511;-55
2021/07/23 08:11:18;;;;;;;11.77;10.57;;;24.30;94.30;;;;;;5034513;28;20452;-54
2021/07/23 08:13:45;;;;;;;11.90;10.80;;;24.50;94.20;;;;;;5052866;28;20442;-56
2021/07/23 08:16:13;;;;;;;16.17;10.00;;;24.50;93.80;;;;;;5052681;28;20473;-54
2021/07/23 08:18:40;;;;;;;11.33;10.23;;;24.60;93.60;;;;;;5051899;28;20435;-54
2021/07/23 08:21:07;;;;;;;12.80;10.80;;;24.60;93.30;;;;;;5052892;28;20438;-55
2021/07/23 08:23:35;;;;;;;11.27;9.90;;;24.80;93.20;;;;;;5052263;28;20445;-55
2021/07/23 08:26:04;;;;;;;11.40;10.10;;;24.90;92.70;;;;;;5034353;28;20458;-55
2021/07/23 08:28:30;;;;;;;14.50;10.63;;;24.80;92.70;;;;;;5052078;28;20557;-54
2021/07/23 08:30:57;;;;;;;16.33;9.30;;;24.80;92.80;;;;;;5052593;28;20438;-56
2021/07/23 08:33:25;;;;;;;10.80;9.70;;;24.70;92.60;;;;;;5034211;28;20962;-56
2021/07/23 08:35:52;;;;;;;10.77;8.57;;;24.80;92.50;;;;;;5051950;28;20443;-56
2021/07/23 08:38:18;;;;;;;12.30;8.60;;;24.80;92.10;;;;;;5051736;28;20442;-56
2021/07/23 08:40:45;;;;;;;9.80;8.80;;;24.80;91.70;;;;;;5052356;28;20446;-56
2021/07/23 08:43:12;;;;;;;11.50;8.50;;;24.80;91.40;;;;;;5052405;28;20522;-55
2021/07/23 08:45:40;;;;;;;13.63;9.53;;;24.90;91.10;;;;;;5052212;28;20469;-55
2021/07/23 08:48:07;;;;;;;11.17;9.83;;;24.90;91.10;;;;;;5051646;28;20482;-55
2021/07/23 08:50:35;;;;;;;9.30;8.30;;;25.00;91.00;;;;;;5052361;28;20433;-57
2021/07/23 08:53:09;;;;;;;10.03;9.00;;;24.90;90.80;;;;;;5052138;28;20443;-56
2021/07/23 08:55:36;;;;;;;12.73;8.73;;;24.90;90.60;;;;;;5034060;28;20782;-56
2021/07/23 08:58:03;;;;;;;9.33;8.30;;;25.10;90.60;;;;;;5052150;28;20466;-56
2021/07/23 09:00:29;;;;;;;10.10;9.10;;;25.20;90.30;;;;;;5052043;28;20458;-55
2021/07/23 09:02:57;;;;;;;12.87;8.77;;;25.30;90.20;;;;;;5052175;28;20820;-55
2021/07/23 09:05:27;;;;;;;12.90;8.00;;;25.20;90.00;;;;;;5051790;28;20502;-55
2021/07/23 09:07:58;;;;;;;11.60;9.03;;;25.40;90.00;;;;;;5051544;28;20474;-56
2021/07/23 09:10:26;;;;;;;8.40;7.60;;;25.20;90.10;;;;;;5051675;28;20961;-55
2021/07/23 09:12:54;;;;;;;9.60;8.60;;;25.20;89.70;;;;;;5051581;28;20439;-56
2021/07/23 09:15:23;;;;;;;11.37;8.80;;;25.20;90.10;;;;;;5051999;28;20552;-55
2021/07/23 09:17:50;;;;;;;10.37;9.27;;;25.00;90.00;;;;;;5051225;28;20464;-55
2021/07/23 09:20:21;;;;;;;9.83;8.83;;;25.00;89.20;;;;;;5050461;28;20434;-56
2021/07/23 09:22:49;;;;;;;9.90;8.80;;;24.70;88.70;;;;;;5052090;28;20451;-55
2021/07/23 09:25:33;;;;;;;11.67;9.00;;;24.90;88.80;;;;;;5051703;28;20781;-55
2021/07/23 09:28:00;;;;;;;9.63;8.73;;;25.00;88.30;;;;;;5051339;28;20454;-55
2021/07/23 09:30:42;;;;;;;11.10;8.70;;;25.00;88.40;;;;;;5051649;28;20541;-55
2021/07/23 09:33:09;;;;;;;11.47;8.60;;;25.20;87.60;;;;;;5051629;28;20435;-56
2021/07/23 09:35:36;;;;;;;8.70;7.80;;;25.40;88.40;;;;;;5051350;28;20495;-56
2021/07/23 09:38:03;;;;;;;14.23;9.30;;;25.40;87.00;;;;;;5050856;28;20462;-55
2021/07/23 09:40:42;;;;;;;11.07;9.43;;;25.50;87.20;;;;;;5051364;28;20473;-57
2021/07/23 09:43:08;;;;;;;13.63;9.13;;;25.40;85.60;;;;;;5050878;28;20457;-56
2021/07/23 09:45:36;;;;;;;9.90;8.97;;;25.40;85.90;;;;;;5051274;28;20435;-56
2021/07/23 09:48:10;;;;;;;12.33;10.33;;;25.30;85.90;;;;;;5050780;28;20478;-55
2021/07/23 09:50:43;;;;;;;12.13;10.77;;;25.40;86.00;;;;;;5050873;28;20437;-56
2021/07/23 09:53:10;;;;;;;12.10;10.87;;;25.40;85.90;;;;;;5032883;28;20469;-56
2021/07/23 09:55:36;;;;;;;11.43;10.20;;;25.40;85.80;;;;;;5051174;28;20510;-55
2021/07/23 09:58:07;;;;;;;14.47;11.80;;;25.50;85.30;;;;;;5050610;28;20947;-56
2021/07/23 10:00:44;;;;;;;10.77;9.87;;;25.50;83.60;;;;;;5051208;28;20749;-56
2021/07/23 10:03:13;;;;;;;14.10;10.43;;;25.60;84.70;;;;;;5051308;28;20509;-56
2021/07/23 10:05:47;;;;;;;11.53;10.20;;;25.90;85.00;;;;;;5050575;28;20526;-57
2021/07/23 10:08:21;;;;;;;19.40;10.03;;;25.70;84.40;;;;;;5050404;28;20480;-55
2021/07/23 10:10:50;;;;;;;15.00;9.93;;;25.70;85.10;;;;;;5050820;28;20817;-56
2021/07/23 10:13:21;;;;;;;12.07;11.00;;;25.60;85.20;;;;;;5032486;28;20451;-57
2021/07/23 10:15:49;;;;;;;13.50;10.10;;;25.60;85.10;;;;;;5050465;28;20454;-56
2021/07/23 10:18:16;;;;;;;10.73;9.17;;;25.40;85.00;;;;;;5049789;28;20457;-55
2021/07/23 10:20:42;;;;;;;14.20;10.30;;;25.30;85.30;;;;;;5050503;28;20525;-54
2021/07/23 10:23:09;;;;;;;13.30;10.77;;;25.20;85.50;;;;;;5050318;28;21003;-56
2021/07/23 10:25:37;;;;;;;19.53;10.73;;;25.40;85.90;;;;;;5050288;28;20441;-56
2021/07/23 10:28:05;;;;;;;11.47;10.23;;;25.10;85.80;;;;;;5049764;28;20458;-58
2021/07/23 10:30:34;;;;;;;11.83;10.73;;;25.10;86.10;;;;;;5049932;28;20841;-57
2021/07/23 10:33:01;;;;;;;12.63;10.57;;;25.10;86.80;;;;;;5050041;28;20531;-58
2021/07/23 10:35:33;;;;;;;11.43;10.27;;;25.10;86.90;;;;;;5050286;28;20439;-55
2021/07/23 10:38:20;;;;;;;11.27;10.10;;;25.10;86.70;;;;;;5049827;28;20545;-54
2021/07/23 10:40:47;;;;;;;11.97;10.60;;;25.20;86.30;;;;;;5050212;28;20450;-54
2021/07/23 10:43:34;;;;;;;12.37;11.17;;;25.30;87.30;;;;;;5050178;28;20436;-55
2021/07/23 10:46:03;;;;;;;12.17;10.27;;;25.40;84.60;;;;;;5050102;28;20445;-55
2021/07/23 10:48:47;;;;;;;11.93;10.53;;;25.30;84.90;;;;;;5049492;28;20877;-56
2021/07/23 10:51:50;;;;;;;12.47;11.23;;;25.50;84.80;;;;;;5049840;28;20500;-56
2021/07/23 10:54:18;;;;;;;11.87;10.30;;;25.60;83.70;;;;;;5047559;28;20462;-56
2021/07/23 10:57:12;;;;;;;12.60;11.30;;;25.70;84.00;;;;;;5050191;28;20458;-56
2021/07/23 10:59:49;;;;;;;13.83;11.30;;;25.80;83.00;;;;;;5048120;28;20528;-57
2021/07/23 11:02:47;;;;;;;13.23;10.90;;;25.80;82.40;;;;;;5049942;28;20542;-54
2021/07/23 11:05:19;;;;;;;12.07;9.97;;;25.70;82.60;;;;;;5049918;28;20787;-56
2021/07/23 11:07:46;;;;;;;14.20;10.90;;;25.70;83.30;;;;;;5065430;22;20585;-57
2021/07/23 11:10:16;;;;;;;15.43;11.37;;;25.70;83.70;;;;;;5051301;28;20474;-56
2021/07/23 11:12:45;;;;;;;13.63;11.80;;;25.70;83.80;;;;;;5051290;28;20435;-55
2021/07/23 11:15:13;;;;;;;13.40;10.23;;;25.80;83.70;;;;;;5033030;28;20481;-55
2021/07/23 11:17:56;;;;;;;12.70;10.27;;;25.80;83.70;;;;;;5051422;28;20971;-56
2021/07/23 11:20:38;;;;;;;14.20;10.23;;;25.90;82.80;;;;;;5050984;28;20532;-56
2021/07/23 11:23:06;;;;;;;12.03;10.80;;;25.90;83.40;;;;;;5051439;28;20820;-57
2021/07/23 11:25:32;;;;;;;11.50;10.50;;;25.80;82.90;;;;;;5051557;28;20435;-57
2021/07/23 11:28:04;;;;;;;11.30;10.13;;;25.90;82.80;;;;;;5050919;28;20464;-56
2021/07/23 11:30:33;;;;;;;12.17;10.50;;;25.80;83.00;;;;;;5050935;28;20478;-57
2021/07/23 11:33:05;;;;;;;13.17;10.40;;;25.70;83.60;;;;;;5032577;28;20978;-57
2021/07/23 11:35:33;;;;;;;14.73;11.83;;;25.80;83.60;;;;;;5051336;28;20928;-55
2021/07/23 11:38:09;;;;;;;11.87;10.60;;;25.80;83.30;;;;;;5050712;28;20454;-56
2021/07/23 11:40:36;;;;;;;15.00;10.13;;;25.80;83.00;;;;;;5033065;28;20465;-55
2021/07/23 11:43:04;;;;;;;14.20;10.30;;;25.90;82.90;;;;;;5053619;28;20437;-57
2021/07/23 11:45:33;;;;;;;10.77;9.67;;;26.00;82.10;;;;;;5054823;28;20943;-57
2021/07/23 11:48:09;;;;;;;11.93;9.57;;;26.20;81.80;;;;;;5054287;28;20459;-55
2021/07/23 11:50:37;;;;;;;12.13;10.67;;;26.30;80.50;;;;;;5054678;28;20519;-57
2021/07/23 11:53:06;;;;;;;11.43;10.07;;;26.30;80.50;;;;;;5037038;28;20450;-57
2021/07/23 11:55:40;;;;;;;16.80;10.20;;;26.50;80.10;;;;;;5054694;28;20470;-57
2021/07/23 11:58:07;;;;;;;13.83;10.70;;;26.40;79.70;;;;;;5053950;28;20966;-57
2021/07/23 12:00:34;;;;;;;11.33;9.97;;;26.40;79.90;;;;;;5054544;28;20790;-57
2021/07/23 12:03:17;;;;;;;11.77;10.07;;;26.40;79.20;;;;;;5054204;28;20934;-57
2021/07/23 12:05:44;;;;;;;11.23;10.07;;;26.40;78.70;;;;;;5054484;28;20485;-58
2021/07/23 12:08:11;;;;;;;11.07;9.87;;;26.40;79.00;;;;;;5054616;28;20895;-56
2021/07/23 12:10:39;;;;;;;10.73;9.63;;;26.40;78.80;;;;;;5054202;28;20949;-57
2021/07/23 12:13:08;;;;;;;10.40;9.37;;;26.60;78.90;;;;;;5054151;28;20544;-57
2021/07/23 12:15:43;;;;;;;12.53;9.73;;;26.60;78.50;;;;;;5054618;28;20963;-56
2021/07/23 12:18:15;;;;;;;13.13;9.90;;;26.70;77.60;;;;;;5053886;28;20537;-57
2021/07/23 12:20:43;;;;;;;10.77;9.77;;;26.80;78.30;;;;;;5054092;28;20431;-57
2021/07/23 12:23:10;;;;;;;10.23;9.23;;;26.90;76.70;;;;;;5053628;28;20430;-57
2021/07/23 12:25:43;;;;;;;11.30;10.20;;;27.00;76.40;;;;;;5053925;28;20515;-56
2021/07/23 12:28:12;;;;;;;11.07;9.97;;;27.00;75.90;;;;;;5037444;28;20470;-57
2021/07/23 12:30:40;;;;;;;14.67;9.27;;;27.10;75.70;;;;;;5054043;28;20569;-55
2021/07/23 12:33:14;;;;;;;12.07;10.83;;;27.20;75.50;;;;;;5053962;28;20426;-57
2021/07/23 12:35:43;;;;;;;11.60;10.50;;;27.20;74.30;;;;;;5053846;28;20475;-56
2021/07/23 12:38:10;;;;;;;11.93;9.60;;;27.10;74.80;;;;;;5053905;28;20865;-56
2021/07/23 12:40:45;;;;;;;10.53;9.40;;;27.00;74.60;;;;;;5053738;28;20445;-55